createdAt,value
2022-10-12T00:01:33.742Z,39.03
2022-10-12T00:04:00.170Z,47.17
2022-10-12T00:06:26.628Z,42.87
2022-10-12T00:08:54.814Z,41.43
2022-10-12T00:11:26.654Z,41.67
2022-10-12T00:13:53.741Z,44.20
2022-10-12T00:16:21.709Z,41.50
2022-10-12T00:18:52.443Z,43.67
2022-10-12T00:21:19.024Z,43.33
2022-10-12T00:23:45.997Z,51.27
2022-10-12T00:26:18.370Z,42.10
2022-10-12T00:28:45.076Z,38.50
2022-10-12T00:31:14.773Z,38.97
2022-10-12T00:33:41.984Z,42.80
2022-10-12T00:36:17.089Z,47.00
2022-10-12T00:38:43.607Z,43.37
2022-10-12T00:41:10.684Z,45.67
2022-10-12T00:43:41.640Z,38.43
2022-10-12T00:46:37.416Z,49.00
2022-10-12T00:49:12.829Z,41.10
2022-10-12T00:51:44.316Z,43.07
2022-10-12T00:54:14.504Z,49.93
2022-10-12T00:56:43.341Z,53.70
2022-10-12T00:59:12.788Z,38.73
2022-10-12T01:01:39.463Z,44.83
2022-10-12T01:04:06.391Z,47.97
2022-10-12T01:06:33.635Z,43.13
2022-10-12T01:09:00.282Z,40.17
2022-10-12T01:11:26.715Z,50.70
2022-10-12T01:13:53.132Z,50.43
2022-10-12T01:16:33.953Z,40.80
2022-10-12T01:19:45.195Z,42.57
2022-10-12T01:22:15.919Z,54.27
2022-10-12T01:24:52.901Z,45.93
2022-10-12T01:27:52.262Z,47.60
2022-10-12T01:30:23.124Z,44.97
2022-10-12T01:32:55.096Z,39.80
2022-10-12T01:35:25.631Z,52.60
2022-10-12T01:38:12.814Z,42.00
2022-10-12T01:40:44.357Z,56.20
2022-10-12T01:43:10.867Z,44.37
2022-10-12T01:45:37.367Z,44.53
2022-10-12T01:48:04.915Z,42.97
2022-10-12T01:50:38.020Z,46.13
2022-10-12T01:53:27.557Z,40.53
2022-10-12T01:56:21.119Z,43.77
2022-10-12T01:59:17.631Z,47.07
2022-10-12T02:01:52.854Z,42.50
2022-10-12T02:04:28.126Z,46.93
2022-10-12T02:07:01.192Z,43.10
2022-10-12T02:09:29.917Z,45.77
2022-10-12T02:11:58.481Z,55.10
2022-10-12T02:14:31.500Z,48.97
2022-10-12T02:17:04.652Z,43.57
2022-10-12T02:19:36.033Z,51.47
2022-10-12T02:22:05.192Z,38.23
2022-10-12T02:24:33.519Z,43.73
2022-10-12T02:27:00.899Z,49.27
2022-10-12T02:29:34.302Z,43.43
2022-10-12T02:32:24.155Z,47.13
2022-10-12T02:34:56.861Z,45.40
2022-10-12T02:37:25.964Z,48.47
2022-10-12T02:39:59.979Z,46.00
2022-10-12T02:42:41.855Z,45.27
2022-10-12T02:45:19.330Z,52.13
2022-10-12T02:47:47.161Z,42.00
2022-10-12T02:50:15.525Z,45.63
2022-10-12T02:52:42.248Z,47.63
2022-10-12T02:55:08.807Z,49.70
2022-10-12T02:57:35.396Z,47.53
2022-10-12T03:00:01.973Z,44.40
2022-10-12T03:02:28.711Z,41.33
2022-10-12T03:04:55.125Z,44.70
2022-10-12T03:07:21.526Z,46.07
2022-10-12T03:09:48.115Z,47.20
2022-10-12T03:12:14.622Z,46.17
2022-10-12T03:14:41.118Z,52.43
2022-10-12T03:17:07.901Z,44.17
2022-10-12T03:19:34.327Z,40.97
2022-10-12T03:22:00.890Z,43.93
2022-10-12T03:24:28.205Z,50.00
2022-10-12T03:26:54.633Z,44.73
2022-10-12T03:29:21.082Z,46.60
2022-10-12T03:31:47.532Z,39.37
2022-10-12T03:34:13.941Z,51.87
2022-10-12T03:36:40.400Z,46.00
2022-10-12T03:39:07.008Z,51.43
2022-10-12T03:41:33.444Z,47.13
2022-10-12T03:44:00.036Z,44.10
2022-10-12T03:46:26.569Z,39.33
2022-10-12T03:48:52.993Z,44.37
2022-10-12T03:51:19.447Z,49.20
2022-10-12T03:53:46.119Z,41.00
2022-10-12T03:56:12.887Z,43.03
2022-10-12T03:58:39.320Z,48.67
2022-10-12T04:01:05.851Z,51.03
2022-10-12T04:03:33.634Z,50.23
2022-10-12T04:06:00.041Z,43.63
2022-10-12T04:08:29.108Z,48.43
2022-10-12T04:10:56.072Z,44.70
2022-10-12T04:13:22.647Z,49.20
2022-10-12T04:15:49.316Z,47.30
2022-10-12T04:18:16.018Z,50.23
2022-10-12T04:20:42.452Z,51.60
2022-10-12T04:23:09.067Z,45.20
2022-10-12T04:25:35.542Z,45.77
2022-10-12T04:28:01.985Z,39.13
2022-10-12T04:30:29.107Z,55.23
2022-10-12T04:32:55.767Z,53.87
2022-10-12T04:35:22.208Z,46.97
2022-10-12T04:37:48.709Z,45.30
2022-10-12T04:40:15.121Z,50.83
2022-10-12T04:42:41.570Z,50.67
2022-10-12T04:45:08.572Z,52.87
2022-10-12T04:47:35.791Z,56.60
2022-10-12T04:50:03.007Z,42.37
2022-10-12T04:52:29.416Z,47.37
2022-10-12T04:54:55.837Z,50.63
2022-10-12T04:57:22.360Z,49.67
2022-10-12T04:59:48.934Z,46.17
2022-10-12T05:02:15.824Z,51.70
2022-10-12T05:04:42.421Z,45.93
2022-10-12T05:07:09.079Z,44.77
2022-10-12T05:09:35.566Z,45.53
2022-10-12T05:12:02.406Z,50.60
2022-10-12T05:14:35.014Z,39.83
2022-10-12T05:17:03.276Z,45.13
2022-10-12T05:19:29.863Z,51.77
2022-10-12T05:21:56.496Z,43.77
2022-10-12T05:24:23.093Z,48.07
2022-10-12T05:26:49.785Z,52.50
2022-10-12T05:29:16.869Z,56.33
2022-10-12T05:31:43.331Z,48.20
2022-10-12T05:34:10.024Z,45.83
2022-10-12T05:36:36.668Z,54.70
2022-10-12T05:39:05.907Z,58.83
2022-10-12T05:41:32.490Z,53.27
2022-10-12T05:43:58.907Z,48.23
2022-10-12T05:46:25.650Z,57.73
2022-10-12T05:48:52.135Z,57.13
2022-10-12T05:51:18.757Z,50.57
2022-10-12T05:53:45.257Z,53.53
2022-10-12T05:56:11.814Z,59.57
2022-10-12T05:58:38.362Z,52.17
2022-10-12T06:01:12.390Z,55.97
2022-10-12T06:03:38.958Z,61.73
2022-10-12T06:06:06.897Z,54.80
2022-10-12T06:08:34.092Z,55.20
2022-10-12T06:11:00.513Z,46.60
2022-10-12T06:13:26.936Z,53.13
2022-10-12T06:15:53.377Z,53.00
2022-10-12T06:18:20.279Z,50.27
2022-10-12T06:21:14.868Z,45.60
2022-10-12T06:23:40.541Z,46.87
2022-10-12T06:26:07.102Z,48.73
2022-10-12T06:28:33.686Z,43.87
2022-10-12T06:31:01.623Z,39.23
2022-10-12T06:33:28.748Z,48.23
2022-10-12T06:35:55.750Z,46.40
2022-10-12T06:38:22.597Z,39.40
2022-10-12T06:40:49.294Z,44.93
2022-10-12T06:43:15.917Z,51.23
2022-10-12T06:45:42.406Z,44.13
2022-10-12T06:48:09.297Z,56.17
2022-10-12T06:50:36.016Z,49.30
2022-10-12T06:53:04.695Z,51.90
2022-10-12T06:55:31.510Z,46.07
2022-10-12T06:57:57.967Z,47.87
2022-10-12T07:00:24.994Z,51.63
2022-10-12T07:02:52.206Z,53.40
2022-10-12T07:05:19.307Z,40.50
2022-10-12T07:07:45.781Z,40.73
2022-10-12T07:10:12.536Z,52.53
2022-10-12T07:12:39.412Z,39.60
2022-10-12T07:15:07.328Z,38.97
2022-10-12T07:17:33.911Z,38.40
2022-10-12T07:20:00.360Z,35.20
2022-10-12T07:22:27.239Z,43.27
2022-10-12T07:37:44.366Z,33.07
2022-10-12T07:40:10.943Z,28.23
2022-10-12T07:42:48.899Z,26.43
2022-10-12T07:45:30.252Z,27.43
2022-10-12T07:47:56.748Z,31.23
2022-10-12T07:50:23.410Z,26.37
2022-10-12T07:52:56.236Z,26.03
2022-10-12T07:55:22.746Z,30.53
2022-10-12T07:57:49.159Z,27.57
2022-10-12T08:00:22.181Z,30.73
2022-10-12T08:02:48.767Z,25.13
2022-10-12T08:05:15.246Z,23.73
2022-10-12T08:07:48.252Z,22.77
2022-10-12T08:10:14.754Z,21.40
2022-10-12T08:12:41.343Z,27.20
2022-10-12T08:15:15.256Z,29.57
2022-10-12T08:17:41.840Z,28.37
2022-10-12T08:20:08.630Z,24.67
2022-10-12T08:22:41.155Z,23.77
2022-10-12T08:25:07.960Z,21.37
2022-10-12T08:27:36.112Z,23.90
2022-10-12T08:30:09.166Z,25.27
2022-10-12T08:32:35.656Z,24.50
2022-10-12T08:35:02.213Z,27.40
2022-10-12T08:37:42.295Z,31.25
2022-10-12T08:40:14.314Z,20.53
2022-10-12T08:42:55.177Z,19.83
2022-10-12T08:45:36.374Z,21.73
2022-10-12T08:48:25.173Z,24.73
2022-10-12T08:51:03.886Z,23.97
2022-10-12T08:53:54.179Z,23.57
2022-10-12T08:56:20.865Z,19.73
2022-10-12T08:58:48.418Z,22.97
2022-10-12T09:01:30.224Z,19.30
2022-10-12T09:04:13.353Z,25.03
2022-10-12T09:06:53.198Z,22.17
2022-10-12T09:09:46.596Z,27.00
2022-10-12T09:12:30.289Z,23.47
2022-10-12T09:15:00.507Z,24.20
2022-10-12T09:17:37.304Z,18.93
2022-10-12T09:20:33.214Z,22.27
2022-10-12T09:23:35.371Z,16.80
2022-10-12T09:26:09.953Z,24.23
2022-10-12T09:28:51.352Z,26.93
2022-10-12T09:31:43.430Z,21.67
2022-10-12T09:34:19.333Z,22.13
2022-10-12T09:36:55.479Z,21.17
2022-10-12T09:39:35.545Z,17.83
2022-10-12T09:42:02.333Z,20.27
2022-10-12T09:44:35.871Z,12.53
2022-10-12T09:47:04.331Z,18.67
2022-10-12T09:49:41.124Z,17.73
2022-10-12T09:52:08.270Z,17.00
2022-10-12T09:54:35.557Z,14.50
2022-10-12T09:57:02.717Z,21.20
2022-10-12T09:59:42.621Z,19.90
2022-10-12T10:02:11.864Z,15.80
2022-10-12T10:04:39.470Z,16.07
2022-10-12T10:07:24.373Z,13.87
2022-10-12T10:10:10.197Z,17.67
2022-10-12T10:12:43.011Z,18.07
2022-10-12T10:15:25.018Z,15.63
2022-10-12T10:17:57.065Z,11.73
2022-10-12T10:20:28.260Z,14.17
2022-10-12T10:22:54.831Z,14.47
2022-10-12T10:25:22.832Z,14.00
2022-10-12T10:27:50.958Z,11.73
2022-10-12T10:30:29.596Z,17.77
2022-10-12T10:33:18.271Z,16.90
2022-10-12T10:36:22.418Z,11.30
2022-10-12T10:38:55.692Z,14.77
2022-10-12T10:41:26.361Z,15.60
2022-10-12T10:43:52.989Z,18.60
2022-10-12T10:46:27.246Z,12.60
2022-10-12T10:49:01.715Z,13.60
2022-10-12T10:51:51.368Z,7.90
2022-10-12T10:54:23.867Z,12.57
2022-10-12T10:56:52.567Z,11.00
2022-10-12T10:59:22.411Z,13.20
2022-10-12T11:01:55.573Z,11.97
2022-10-12T11:04:42.012Z,11.97
2022-10-12T11:07:21.019Z,10.33
2022-10-12T11:09:52.137Z,14.53
2022-10-12T11:12:31.155Z,13.03
2022-10-12T11:15:05.928Z,13.70
2022-10-12T11:17:35.402Z,11.13
2022-10-12T11:20:15.760Z,11.73
2022-10-12T11:23:23.837Z,15.10
2022-10-12T11:26:04.265Z,11.67
2022-10-12T11:28:32.685Z,15.23
2022-10-12T11:31:00.494Z,11.80
2022-10-12T11:33:42.534Z,15.70
2022-10-12T11:36:16.174Z,11.63
2022-10-12T11:38:47.510Z,9.43
2022-10-12T11:41:35.729Z,13.97
2022-10-12T11:44:16.061Z,13.50
2022-10-12T11:46:57.086Z,13.20
2022-10-12T11:49:29.234Z,14.60
2022-10-12T11:51:58.748Z,7.13
2022-10-12T11:54:32.724Z,14.50
2022-10-12T11:57:05.182Z,7.83
2022-10-12T11:59:48.545Z,13.50
2022-10-12T12:02:23.416Z,10.00
2022-10-12T12:04:51.145Z,13.80
2022-10-12T12:07:48.981Z,9.63
2022-10-12T12:10:38.037Z,6.20
2022-10-12T12:13:11.616Z,10.77
2022-10-12T12:15:43.143Z,10.80
2022-10-12T12:18:15.640Z,7.90
2022-10-12T12:20:42.623Z,9.20
2022-10-12T12:23:29.494Z,11.50
2022-10-12T12:26:16.870Z,8.20
2022-10-12T12:28:49.655Z,12.00
2022-10-12T12:31:22.423Z,8.83
2022-10-12T12:33:52.067Z,11.20
2022-10-12T12:36:33.159Z,6.87
2022-10-12T12:39:00.453Z,13.83
2022-10-12T12:42:00.601Z,20.10
2022-10-12T12:44:34.477Z,12.57
2022-10-12T12:47:01.136Z,10.93
2022-10-12T12:49:46.377Z,10.97
2022-10-12T12:52:28.495Z,10.20
2022-10-12T12:55:16.574Z,7.90
2022-10-12T12:57:54.657Z,9.70
2022-10-12T13:00:22.736Z,10.43
2022-10-12T13:03:34.180Z,15.57
2022-10-12T13:06:14.992Z,13.30
2022-10-12T13:09:15.424Z,5.77
2022-10-12T13:12:06.755Z,9.40
2022-10-12T13:15:01.087Z,12.00
2022-10-12T13:17:39.837Z,7.13
2022-10-12T13:20:20.980Z,10.83
2022-10-12T13:22:50.716Z,8.63
2022-10-12T13:25:59.558Z,8.07
2022-10-12T13:28:29.086Z,7.23
2022-10-12T13:31:02.909Z,12.13
2022-10-12T13:34:08.072Z,7.27
2022-10-12T13:36:36.914Z,8.57
2022-10-12T13:39:21.269Z,6.87
2022-10-12T13:41:50.690Z,11.53
2022-10-12T13:44:26.802Z,9.70
2022-10-12T13:46:56.689Z,6.03
2022-10-12T13:49:24.987Z,6.27
2022-10-12T13:51:54.395Z,9.40
2022-10-12T13:54:26.213Z,6.37
2022-10-12T13:57:00.692Z,7.90
2022-10-12T13:59:28.699Z,9.33
2022-10-12T14:02:01.902Z,12.13
2022-10-12T14:04:30.922Z,9.53
2022-10-12T14:07:04.352Z,8.70
2022-10-12T14:09:40.360Z,11.47
2022-10-12T14:12:07.527Z,8.87
2022-10-12T14:14:36.266Z,7.30
2022-10-12T14:17:03.289Z,17.00
2022-10-12T14:19:51.448Z,7.90
2022-10-12T14:22:32.495Z,13.60
2022-10-12T14:25:08.009Z,9.13
2022-10-12T14:27:36.237Z,9.43
2022-10-12T14:30:23.683Z,13.37
2022-10-12T14:32:53.967Z,12.07
2022-10-12T14:35:25.546Z,9.23
2022-10-12T14:37:55.099Z,13.73
2022-10-12T14:40:39.335Z,11.90
2022-10-12T14:43:13.325Z,10.60
2022-10-12T14:45:40.603Z,9.53
2022-10-12T14:48:18.495Z,11.77
2022-10-12T14:50:48.338Z,9.90
2022-10-12T14:53:15.746Z,11.37
2022-10-12T14:55:42.939Z,7.70
2022-10-12T14:58:15.301Z,10.80
2022-10-12T15:00:42.535Z,11.07
2022-10-12T15:03:09.319Z,9.30
2022-10-12T15:05:36.064Z,12.07
2022-10-12T15:08:09.299Z,13.53
2022-10-12T15:10:37.819Z,11.07
2022-10-12T15:13:04.604Z,12.37
2022-10-12T15:15:40.195Z,15.97
2022-10-12T15:18:07.797Z,15.53
2022-10-12T15:20:35.007Z,13.03
2022-10-12T15:23:03.090Z,16.57
2022-10-12T15:25:35.931Z,10.93
2022-10-12T15:28:03.359Z,14.93
2022-10-12T15:30:30.217Z,16.30
2022-10-12T15:32:56.958Z,16.20
2022-10-12T15:35:26.122Z,11.83
2022-10-12T15:37:53.230Z,14.37
2022-10-12T15:40:20.971Z,14.37
2022-10-12T15:42:47.805Z,14.97
2022-10-12T15:45:22.537Z,13.67
2022-10-12T15:47:50.541Z,32.87
2022-10-12T15:50:19.258Z,27.83
2022-10-12T15:52:46.397Z,27.53
2022-10-12T15:55:22.085Z,26.03
2022-10-12T15:57:49.054Z,25.03
2022-10-12T16:00:17.066Z,22.37
2022-10-12T16:02:43.561Z,28.30
2022-10-12T16:05:20.280Z,22.33
2022-10-12T16:07:47.126Z,20.77
2022-10-12T16:10:15.332Z,21.60
2022-10-12T16:12:43.499Z,28.63
2022-10-12T16:15:12.693Z,25.80
2022-10-12T16:17:39.495Z,20.13
2022-10-12T16:20:06.789Z,17.47
2022-10-12T16:22:33.312Z,18.37
2022-10-12T16:24:59.777Z,25.63
2022-10-12T16:27:26.312Z,19.83
2022-10-12T16:29:52.757Z,25.53
2022-10-12T16:32:19.265Z,23.93
2022-10-12T16:34:46.353Z,29.07
2022-10-12T16:37:12.974Z,25.47
2022-10-12T16:39:39.854Z,30.73
2022-10-12T16:42:06.352Z,23.33
2022-10-12T16:44:32.885Z,22.97
2022-10-12T16:47:01.810Z,19.57
2022-10-12T16:49:28.688Z,14.60
2022-10-12T16:51:55.274Z,19.03
2022-10-12T16:54:23.002Z,18.40
2022-10-12T16:56:49.515Z,18.57
2022-10-12T16:59:16.080Z,16.63
2022-10-12T17:01:42.857Z,14.83
2022-10-12T17:04:12.656Z,22.40
2022-10-12T17:06:39.461Z,15.87
2022-10-12T17:09:05.932Z,21.03
2022-10-12T17:11:36.321Z,15.93
2022-10-12T17:14:04.179Z,12.77
2022-10-12T17:16:48.963Z,14.63
2022-10-12T17:19:20.890Z,19.47
2022-10-12T17:21:48.154Z,17.20
2022-10-12T17:24:18.822Z,22.10
2022-10-12T17:26:46.514Z,17.73
2022-10-12T17:29:15.532Z,24.23
2022-10-12T17:31:42.270Z,19.37
2022-10-12T17:34:17.076Z,18.20
2022-10-12T17:36:43.658Z,14.73
2022-10-12T17:39:10.142Z,14.90
2022-10-12T17:41:37.408Z,13.67
2022-10-12T17:44:03.953Z,16.70
2022-10-12T17:46:30.429Z,25.97
2022-10-12T17:48:57.035Z,18.50
2022-10-12T17:51:23.593Z,17.53
2022-10-12T17:53:50.098Z,18.37
2022-10-12T17:56:17.116Z,17.20
2022-10-12T17:58:44.005Z,18.20
2022-10-12T18:01:13.300Z,17.97
2022-10-12T18:03:41.977Z,16.93
2022-10-12T18:06:14.336Z,23.17
2022-10-12T18:08:40.872Z,24.67
2022-10-12T18:11:08.052Z,19.23
2022-10-12T18:13:35.691Z,20.07
2022-10-12T18:16:02.374Z,18.07
2022-10-12T18:18:29.378Z,16.33
2022-10-12T18:20:55.990Z,27.93
2022-10-12T18:23:22.585Z,23.33
2022-10-12T18:25:50.811Z,22.83
2022-10-12T18:28:20.203Z,31.87
2022-10-12T18:45:57.141Z,24.60
2022-10-12T18:48:23.873Z,21.27
2022-10-12T18:50:51.050Z,26.53
2022-10-12T18:53:17.471Z,22.50
2022-10-12T18:55:44.006Z,24.10
2022-10-12T18:58:10.477Z,23.93
2022-10-12T19:00:37.232Z,20.33
2022-10-12T19:03:03.821Z,18.33
2022-10-12T19:05:31.052Z,20.07
2022-10-12T19:07:58.382Z,19.17
2022-10-12T19:10:24.835Z,27.13
2022-10-12T19:12:51.295Z,22.93
2022-10-12T19:15:18.154Z,22.40
2022-10-12T19:17:44.587Z,18.60
2022-10-12T19:20:11.265Z,20.67
2022-10-12T19:22:38.170Z,20.03
2022-10-12T19:25:04.952Z,26.93
2022-10-12T19:27:32.417Z,22.80
2022-10-12T19:29:58.968Z,19.77
2022-10-12T19:32:25.446Z,20.63
2022-10-12T19:34:52.217Z,21.40
2022-10-12T19:37:19.017Z,18.97
2022-10-12T19:39:47.030Z,17.67
2022-10-12T19:42:13.465Z,20.50
2022-10-12T19:44:40.159Z,17.03
2022-10-12T19:47:06.920Z,17.17
2022-10-12T19:49:36.947Z,20.50
2022-10-12T19:52:05.017Z,22.60
2022-10-12T19:54:36.097Z,20.30
2022-10-12T19:57:02.959Z,25.50
2022-10-12T19:59:29.633Z,21.63
2022-10-12T20:01:56.069Z,24.30
2022-10-12T20:04:22.520Z,21.83
2022-10-12T20:06:49.461Z,22.20
2022-10-12T20:09:15.985Z,18.57
2022-10-12T20:11:42.530Z,28.27
2022-10-12T20:14:10.287Z,21.97
2022-10-12T20:16:36.987Z,23.50
2022-10-12T20:19:04.988Z,24.17
2022-10-12T20:21:32.664Z,23.40
2022-10-12T20:23:59.176Z,25.97
2022-10-12T20:26:26.259Z,28.97
2022-10-12T20:28:54.013Z,21.37
2022-10-12T20:31:23.290Z,21.53
2022-10-12T20:33:53.142Z,22.83
2022-10-12T20:36:22.599Z,25.00
2022-10-12T20:38:49.380Z,26.03
2022-10-12T20:41:18.670Z,23.63
2022-10-12T20:43:45.289Z,20.27
2022-10-12T20:46:14.419Z,20.67
2022-10-12T20:48:41.637Z,22.23
2022-10-12T20:51:10.094Z,26.77
2022-10-12T20:53:37.748Z,28.63
2022-10-12T20:56:07.361Z,23.63
2022-10-12T20:58:34.149Z,25.47
2022-10-12T21:01:11.201Z,27.90
2022-10-12T21:03:38.250Z,27.97
2022-10-12T21:06:10.737Z,25.20
2022-10-12T21:08:37.229Z,27.23
2022-10-12T21:11:04.416Z,24.17
2022-10-12T21:13:32.733Z,29.80
2022-10-12T21:15:59.183Z,34.33
2022-10-12T21:18:26.184Z,24.07
2022-10-12T21:20:54.544Z,24.97
2022-10-12T21:23:21.287Z,29.63
2022-10-12T21:25:47.739Z,27.33
2022-10-12T21:28:14.248Z,26.47
2022-10-12T21:30:40.873Z,32.30
2022-10-12T21:33:07.421Z,26.27
2022-10-12T21:35:34.355Z,25.30
2022-10-12T21:38:00.777Z,25.70
2022-10-12T21:40:27.264Z,35.53
2022-10-12T21:42:53.717Z,24.63
2022-10-12T21:45:20.379Z,33.67
2022-10-12T21:47:48.021Z,27.63
2022-10-12T21:50:14.593Z,30.97
2022-10-12T21:52:41.188Z,25.60
2022-10-12T21:55:08.617Z,27.23
2022-10-12T21:57:37.242Z,29.90
2022-10-12T22:00:05.441Z,25.80
2022-10-12T22:02:32.658Z,28.57
2022-10-12T22:04:59.146Z,34.57
2022-10-12T22:07:25.636Z,29.60
2022-10-12T22:09:52.384Z,28.37
2022-10-12T22:12:19.171Z,31.47
2022-10-12T22:14:46.169Z,29.27
2022-10-12T22:17:12.916Z,30.97
2022-10-12T22:19:39.548Z,27.93
2022-10-12T22:22:06.096Z,26.27
2022-10-12T22:24:32.804Z,31.83
2022-10-12T22:26:59.441Z,34.47
2022-10-12T22:29:26.173Z,27.67
2022-10-12T22:31:52.753Z,24.87
2022-10-12T22:34:20.411Z,28.40
2022-10-12T22:36:46.886Z,26.40
2022-10-12T22:39:13.447Z,27.10
2022-10-12T22:41:39.944Z,29.73
2022-10-12T22:44:06.493Z,28.20
2022-10-12T22:46:33.054Z,36.53
2022-10-12T22:48:59.622Z,32.97
2022-10-12T22:51:32.505Z,28.70
2022-10-12T22:53:59.531Z,25.70
2022-10-12T22:56:26.464Z,27.07
2022-10-12T22:58:58.533Z,32.47
2022-10-12T23:01:25.554Z,36.50
2022-10-12T23:03:52.073Z,36.00
2022-10-12T23:06:18.984Z,36.70
2022-10-12T23:08:46.155Z,31.07
2022-10-12T23:11:15.945Z,34.33
2022-10-12T23:13:42.750Z,31.60
2022-10-12T23:16:15.399Z,38.80
2022-10-12T23:18:42.265Z,27.43
2022-10-12T23:21:14.495Z,32.83
2022-10-12T23:23:41.707Z,30.20
2022-10-12T23:26:19.406Z,33.93
2022-10-12T23:28:46.455Z,31.60
2022-10-12T23:31:15.058Z,38.30
2022-10-12T23:33:41.836Z,29.50
2022-10-12T23:36:11.077Z,42.40
2022-10-12T23:38:38.533Z,38.73
2022-10-12T23:41:05.816Z,39.17
2022-10-12T23:43:33.497Z,35.27
2022-10-12T23:46:00.309Z,36.17
2022-10-12T23:48:27.264Z,30.47
2022-10-12T23:50:53.761Z,30.53
2022-10-12T23:53:21.078Z,36.33
2022-10-12T23:55:48.017Z,41.90
2022-10-12T23:58:14.803Z,33.83
